createdAt,value
2019-04-21T00:00:46.415Z,19.00
2019-04-21T00:03:18.244Z,19.00
2019-04-21T00:06:03.381Z,18.90
2019-04-21T00:11:09.691Z,18.90
2019-04-21T00:13:28.080Z,18.80
2019-04-21T00:15:53.780Z,18.70
2019-04-21T00:18:50.675Z,18.70
2019-04-21T00:21:28.208Z,18.70
2019-04-21T00:24:20.214Z,18.70
2019-04-21T00:27:00.632Z,18.60
2019-04-21T00:29:30.366Z,18.60
2019-04-21T00:31:56.011Z,18.50
2019-04-21T00:34:11.207Z,18.50
2019-04-21T00:36:51.503Z,18.50
2019-04-21T00:41:59.604Z,18.40
2019-04-21T00:44:24.595Z,18.40
2019-04-21T00:47:00.672Z,18.30
2019-04-21T00:49:34.248Z,18.30
2019-04-21T00:52:43.645Z,18.30
2019-04-21T00:55:07.748Z,18.30
2019-04-21T00:57:34.322Z,18.30
2019-04-21T01:00:01.206Z,18.20
2019-04-21T01:02:32.977Z,18.10
2019-04-21T01:05:04.869Z,18.10
2019-04-21T01:07:32.587Z,18.10
2019-04-21T01:09:52.544Z,18.00
2019-04-21T01:12:37.371Z,18.00
2019-04-21T01:15:10.910Z,18.00
2019-04-21T01:17:35.722Z,18.00
2019-04-21T01:20:01.731Z,17.90
2019-04-21T01:22:17.198Z,17.80
2019-04-21T01:24:53.523Z,17.80
2019-04-21T01:27:31.902Z,17.80
2019-04-21T01:30:14.297Z,17.70
2019-04-21T01:32:42.637Z,17.60
2019-04-21T01:35:13.300Z,17.50
2019-04-21T01:37:49.766Z,17.50
2019-04-21T01:40:21.279Z,17.50
2019-04-21T01:42:48.141Z,17.40
2019-04-21T01:45:14.650Z,17.40
2019-04-21T01:47:40.854Z,17.40
2019-04-21T01:50:09.907Z,17.40
2019-04-21T01:52:57.564Z,17.30
2019-04-21T01:55:30.738Z,17.30
2019-04-21T01:58:01.974Z,17.20
2019-04-21T02:00:39.075Z,17.20
2019-04-21T02:03:37.532Z,17.20
2019-04-21T02:05:51.098Z,17.10
2019-04-21T02:08:15.295Z,17.10
2019-04-21T02:10:56.041Z,17.10
2019-04-21T02:13:17.233Z,17.00
2019-04-21T02:15:59.289Z,17.00
2019-04-21T02:18:24.800Z,17.00
2019-04-21T02:20:41.028Z,16.90
2019-04-21T02:25:58.776Z,16.90
2019-04-21T02:28:36.731Z,16.80
2019-04-21T02:31:18.672Z,16.80
2019-04-21T02:36:27.451Z,16.70
2019-04-21T02:38:52.982Z,16.60
2019-04-21T02:41:10.468Z,16.70
2019-04-21T02:43:46.579Z,16.70
2019-04-21T02:46:15.111Z,16.70
2019-04-21T02:48:43.421Z,16.60
2019-04-21T02:54:08.020Z,16.50
2019-04-21T02:56:21.721Z,16.60
2019-04-21T03:04:34.598Z,16.40
2019-04-21T03:09:43.235Z,16.40
2019-04-21T03:12:11.538Z,16.30
2019-04-21T03:14:56.591Z,16.30
2019-04-21T03:17:14.610Z,16.20
2019-04-21T03:19:54.077Z,16.20
2019-04-21T03:22:20.828Z,16.20
2019-04-21T03:35:18.920Z,16.10
2019-04-21T03:39:54.459Z,16.10
2019-04-21T03:50:05.213Z,16.00
2019-04-21T03:55:48.835Z,15.90
2019-04-21T03:58:04.799Z,15.90
2019-04-21T04:00:42.754Z,15.80
2019-04-21T04:03:42.168Z,15.80
2019-04-21T04:14:03.802Z,15.70
2019-04-21T04:16:29.453Z,15.60
2019-04-21T04:21:40.014Z,15.50
2019-04-21T04:24:11.043Z,15.50
2019-04-21T04:26:37.371Z,15.50
2019-04-21T04:34:22.339Z,15.40
2019-04-21T04:39:42.732Z,15.30
2019-04-21T04:44:57.074Z,15.30
2019-04-21T04:49:51.568Z,15.20
2019-04-21T04:57:29.110Z,15.20
2019-04-21T04:59:49.560Z,15.20
2019-04-21T05:07:21.262Z,15.20
2019-04-21T05:09:52.405Z,15.20
2019-04-21T05:12:19.715Z,15.20
2019-04-21T05:14:51.718Z,15.20
2019-04-21T05:17:30.916Z,15.20
2019-04-21T05:22:22.323Z,15.20
2019-04-21T05:24:43.973Z,15.20
2019-04-21T05:27:29.604Z,15.20
2019-04-21T05:30:07.178Z,15.30
2019-04-21T05:32:48.869Z,15.30
2019-04-21T05:35:20.093Z,15.20
2019-04-21T05:38:12.420Z,15.20
2019-04-21T05:40:38.907Z,15.30
2019-04-21T05:43:18.673Z,15.30
2019-04-21T05:45:50.156Z,15.40
2019-04-21T05:48:52.504Z,15.40
2019-04-21T05:51:03.709Z,15.40
2019-04-21T05:53:35.906Z,15.40
2019-04-21T05:56:12.896Z,15.40
2019-04-21T05:58:43.984Z,15.40
2019-04-21T06:06:20.281Z,15.50
2019-04-21T06:08:46.921Z,15.60
2019-04-21T06:11:22.179Z,15.70
2019-04-21T06:13:54.976Z,15.70
2019-04-21T06:16:21.441Z,15.80
2019-04-21T06:18:57.285Z,15.80
2019-04-21T06:21:21.965Z,15.90
2019-04-21T06:23:51.512Z,16.00
2019-04-21T06:28:56.865Z,16.10
2019-04-21T06:31:47.122Z,16.10
2019-04-21T06:34:00.239Z,16.10
2019-04-21T06:36:49.288Z,16.30
2019-04-21T06:39:12.028Z,16.30
2019-04-21T06:44:08.217Z,16.40
2019-04-21T06:49:08.604Z,16.50
2019-04-21T06:51:38.952Z,16.50
2019-04-21T06:54:09.644Z,16.60
2019-04-21T06:56:48.279Z,16.70
2019-04-21T06:59:21.040Z,16.60
2019-04-21T07:02:05.323Z,16.70
2019-04-21T07:04:21.019Z,16.80
2019-04-21T07:11:44.538Z,17.00
2019-04-21T07:16:53.074Z,17.20
2019-04-21T07:19:31.914Z,17.20
2019-04-21T07:22:03.222Z,17.30
2019-04-21T07:24:27.616Z,17.40
2019-04-21T07:29:45.322Z,17.50
2019-04-21T07:31:59.147Z,17.70
2019-04-21T07:34:29.072Z,17.70
2019-04-21T07:36:55.917Z,17.80
2019-04-21T07:39:25.542Z,17.90
2019-04-21T07:41:53.982Z,17.90
2019-04-21T07:44:22.851Z,18.00
2019-04-21T07:46:50.516Z,18.00
2019-04-21T07:50:04.977Z,18.10
2019-04-21T07:52:42.534Z,18.10
2019-04-21T07:57:37.606Z,18.30
2019-04-21T08:00:21.406Z,18.40
2019-04-21T08:03:05.254Z,18.50
2019-04-21T08:07:57.153Z,18.60
2019-04-21T08:10:15.671Z,18.60
2019-04-21T08:12:41.920Z,18.80
2019-04-21T08:15:24.004Z,18.80
2019-04-21T08:17:47.268Z,18.90
2019-04-21T08:20:21.605Z,19.00
2019-04-21T08:22:51.000Z,19.00
2019-04-21T08:25:19.589Z,19.10
2019-04-21T08:27:54.505Z,19.10
2019-04-21T08:30:28.787Z,19.20
2019-04-21T08:33:02.410Z,19.20
2019-04-21T08:37:55.314Z,19.30
2019-04-21T08:40:31.655Z,19.40
2019-04-21T08:42:58.180Z,19.40
2019-04-21T08:48:02.723Z,19.60
2019-04-21T08:50:30.974Z,19.70
2019-04-21T08:53:04.021Z,19.80
2019-04-21T08:56:06.779Z,19.80
2019-04-21T08:59:05.416Z,19.90
2019-04-21T09:01:36.841Z,20.00
2019-04-21T09:04:18.694Z,20.10
2019-04-21T09:06:54.196Z,20.10
2019-04-21T09:09:14.742Z,20.20
2019-04-21T09:11:46.186Z,20.30
2019-04-21T09:14:13.398Z,20.40
2019-04-21T09:16:41.086Z,20.40
2019-04-21T09:19:20.158Z,20.50
2019-04-21T09:24:18.987Z,20.60
2019-04-21T09:26:48.471Z,20.70
2019-04-21T09:29:10.871Z,20.70
2019-04-21T09:31:37.460Z,20.80
2019-04-21T09:34:04.757Z,21.00
2019-04-21T09:36:38.921Z,21.00
2019-04-21T09:39:09.175Z,21.00
2019-04-21T09:41:36.387Z,21.10
2019-04-21T09:44:08.719Z,21.20
2019-04-21T09:46:41.787Z,21.30
2019-04-21T09:49:12.119Z,21.40
2019-04-21T09:51:37.594Z,21.50
2019-04-21T09:54:12.620Z,21.60
2019-04-21T09:56:45.437Z,21.60
2019-04-21T09:59:18.028Z,21.60
2019-04-21T10:01:55.852Z,21.70
2019-04-21T10:04:10.290Z,21.90
2019-04-21T10:06:39.579Z,21.90
2019-04-21T10:09:13.891Z,22.00
2019-04-21T10:11:39.782Z,22.00
2019-04-21T10:14:09.742Z,22.10
2019-04-21T10:17:10.876Z,22.10
2019-04-21T10:19:40.226Z,22.10
2019-04-21T10:22:10.541Z,22.20
2019-04-21T10:24:40.498Z,22.20
2019-04-21T10:27:12.248Z,22.40
2019-04-21T10:29:43.143Z,22.40
2019-04-21T10:32:11.511Z,22.50
2019-04-21T10:34:41.242Z,22.60
2019-04-21T10:37:11.212Z,22.50
2019-04-21T10:39:41.847Z,22.60
2019-04-21T10:42:11.328Z,22.70
2019-04-21T10:44:41.017Z,22.80
2019-04-21T10:47:11.014Z,22.90
2019-04-21T10:49:40.374Z,22.80
2019-04-21T10:52:17.122Z,23.00
2019-04-21T10:55:07.270Z,23.10
2019-04-21T10:57:22.458Z,23.10
2019-04-21T10:59:54.166Z,23.20
2019-04-21T11:02:34.966Z,23.30
2019-04-21T11:05:04.782Z,23.40
2019-04-21T11:08:01.205Z,23.40
2019-04-21T11:10:22.173Z,23.50
2019-04-21T11:12:52.687Z,23.70
2019-04-21T11:15:23.180Z,23.80
2019-04-21T11:17:52.757Z,23.80
2019-04-21T11:20:22.806Z,23.90
2019-04-21T11:22:53.552Z,23.90
2019-04-21T11:25:24.135Z,23.90
2019-04-21T11:27:53.618Z,24.00
2019-04-21T11:30:23.375Z,24.20
2019-04-21T11:32:53.151Z,24.20
2019-04-21T11:35:23.412Z,24.30
2019-04-21T11:38:04.017Z,24.40
2019-04-21T11:40:25.435Z,24.50
2019-04-21T11:42:55.659Z,24.50
2019-04-21T11:45:34.527Z,24.50
2019-04-21T11:48:08.661Z,24.60
2019-04-21T11:50:39.123Z,24.70
2019-04-21T11:53:08.481Z,24.60
2019-04-21T11:55:41.106Z,24.80
2019-04-21T11:58:09.847Z,24.90
2019-04-21T12:00:39.930Z,24.90
2019-04-21T12:03:10.092Z,24.90
2019-04-21T12:05:41.363Z,24.90
2019-04-21T12:08:20.764Z,25.10
2019-04-21T12:10:41.883Z,25.20
2019-04-21T12:13:12.060Z,25.30
2019-04-21T12:15:41.383Z,25.40
2019-04-21T12:18:12.052Z,25.40
2019-04-21T12:20:41.296Z,25.50
2019-04-21T12:23:10.523Z,25.60
2019-04-21T12:25:45.587Z,25.70
2019-04-21T12:28:15.980Z,25.80
2019-04-21T12:30:47.390Z,25.80
2019-04-21T12:33:24.851Z,25.90
2019-04-21T12:35:54.061Z,25.90
2019-04-21T12:38:32.150Z,26.10
2019-04-21T12:40:54.877Z,26.30
2019-04-21T12:43:24.430Z,26.40
2019-04-21T12:45:53.875Z,26.40
2019-04-21T12:48:24.081Z,26.40
2019-04-21T12:50:54.216Z,26.50
2019-04-21T12:53:23.634Z,26.60
2019-04-21T12:55:53.801Z,26.60
2019-04-21T12:58:23.601Z,26.60
2019-04-21T13:00:53.016Z,26.80
2019-04-21T13:03:23.922Z,26.90
2019-04-21T13:05:53.740Z,26.90
2019-04-21T13:08:23.281Z,27.00
2019-04-21T13:10:52.484Z,27.20
2019-04-21T13:13:21.990Z,27.30
2019-04-21T13:15:51.750Z,27.20
2019-04-21T13:18:22.568Z,27.50
2019-04-21T13:20:51.997Z,27.60
2019-04-21T13:23:21.208Z,27.90
2019-04-21T13:25:50.407Z,28.30
2019-04-21T13:28:20.772Z,28.60
2019-04-21T13:30:50.636Z,29.20
2019-04-21T13:33:21.015Z,29.50
2019-04-21T13:35:50.948Z,30.00
2019-04-21T13:38:32.518Z,30.30
2019-04-21T13:41:15.006Z,30.70
2019-04-21T13:43:33.116Z,31.10
2019-04-21T13:46:03.698Z,31.40
2019-04-21T13:48:33.028Z,31.70
2019-04-21T13:51:02.661Z,31.90
2019-04-21T13:53:33.075Z,31.90
2019-04-21T13:56:04.601Z,32.00
2019-04-21T13:58:34.626Z,32.00
2019-04-21T14:01:03.853Z,32.20
2019-04-21T14:03:33.377Z,32.40
2019-04-21T14:06:02.799Z,32.60
2019-04-21T14:08:33.499Z,33.10
2019-04-21T14:11:02.794Z,33.40
2019-04-21T14:13:32.256Z,33.60
2019-04-21T14:16:02.149Z,33.80
2019-04-21T14:18:32.906Z,33.90
2019-04-21T14:21:03.103Z,34.00
2019-04-21T14:23:38.078Z,34.10
2019-04-21T14:26:03.888Z,34.20
2019-04-21T14:28:33.581Z,34.20
2019-04-21T14:31:04.267Z,34.30
2019-04-21T14:33:34.191Z,34.50
2019-04-21T14:36:05.098Z,34.60
2019-04-21T14:38:34.580Z,34.80
2019-04-21T14:41:04.040Z,34.90
2019-04-21T14:43:34.181Z,34.80
2019-04-21T14:46:22.461Z,34.60
2019-04-21T14:49:17.362Z,34.50
2019-04-21T14:51:54.832Z,34.40
2019-04-21T14:54:42.719Z,34.60
2019-04-21T14:57:13.483Z,34.90
2019-04-21T14:59:42.856Z,35.30
2019-04-21T15:02:12.162Z,35.60
2019-04-21T15:04:41.760Z,36.00
2019-04-21T15:07:11.220Z,36.40
2019-04-21T15:09:41.547Z,36.80
2019-04-21T15:12:11.855Z,37.20
2019-04-21T15:14:42.256Z,37.30
2019-04-21T15:17:12.511Z,37.50
2019-04-21T15:19:49.568Z,37.90
2019-04-21T15:22:14.517Z,38.30
2019-04-21T15:24:44.520Z,38.80
2019-04-21T15:27:14.701Z,39.40
2019-04-21T15:29:44.862Z,39.90
2019-04-21T15:32:14.863Z,40.30
2019-04-21T15:34:44.414Z,40.50
2019-04-21T15:37:13.805Z,40.40
2019-04-21T15:39:43.036Z,40.40
2019-04-21T15:42:12.602Z,40.10
2019-04-21T15:44:42.839Z,39.80
2019-04-21T15:47:12.074Z,39.40
2019-04-21T15:50:04.717Z,39.10
2019-04-21T15:52:28.111Z,38.90
2019-04-21T15:55:05.310Z,38.90
2019-04-21T15:57:54.423Z,38.70
2019-04-21T16:00:40.493Z,38.80
2019-04-21T16:03:10.800Z,38.90
2019-04-21T16:05:40.593Z,39.00
2019-04-21T16:08:12.077Z,38.90
2019-04-21T16:10:48.951Z,38.70
2019-04-21T16:13:13.896Z,38.50
2019-04-21T16:15:44.267Z,38.30
2019-04-21T16:18:14.155Z,38.00
2019-04-21T16:20:43.935Z,37.90
2019-04-21T16:23:14.769Z,37.90
2019-04-21T16:25:44.379Z,37.90
2019-04-21T16:28:15.128Z,37.90
2019-04-21T16:30:44.740Z,37.90
2019-04-21T16:33:16.040Z,37.90
2019-04-21T16:35:45.402Z,37.80
2019-04-21T16:38:15.429Z,37.60
2019-04-21T16:40:52.517Z,37.20
2019-04-21T16:43:16.382Z,36.80
2019-04-21T16:45:46.596Z,36.40
2019-04-21T16:48:16.961Z,36.10
2019-04-21T16:50:47.736Z,36.00
2019-04-21T16:53:24.042Z,35.80
2019-04-21T16:55:57.326Z,35.90
2019-04-21T16:58:58.875Z,35.90
2019-04-21T17:01:31.566Z,35.90
2019-04-21T17:04:00.556Z,35.60
2019-04-21T17:06:31.054Z,35.30
2019-04-21T17:09:00.964Z,34.80
2019-04-21T17:11:34.726Z,34.20
2019-04-21T17:14:01.294Z,33.50
2019-04-21T17:17:14.155Z,32.80
2019-04-21T17:19:12.780Z,32.20
2019-04-21T17:21:32.343Z,31.60
2019-04-21T17:24:02.181Z,31.00
2019-04-21T17:26:34.495Z,30.50
2019-04-21T17:29:02.716Z,30.20
2019-04-21T17:31:31.902Z,29.90
2019-04-21T17:34:09.578Z,29.50
2019-04-21T17:36:32.909Z,29.20
2019-04-21T17:39:02.417Z,28.80
2019-04-21T17:41:41.185Z,28.60
2019-04-21T17:44:04.331Z,28.30
2019-04-21T17:46:45.576Z,28.10
2019-04-21T17:49:08.670Z,27.80
2019-04-21T17:52:01.133Z,27.50
2019-04-21T17:54:35.703Z,27.40
2019-04-21T17:57:21.751Z,27.10
2019-04-21T18:00:08.186Z,26.90
2019-04-21T18:02:24.849Z,26.80
2019-04-21T18:04:57.715Z,26.60
2019-04-21T18:07:27.555Z,26.40
2019-04-21T18:12:26.602Z,26.20
2019-04-21T18:14:52.936Z,26.10
2019-04-21T18:17:14.129Z,25.90
2019-04-21T18:19:47.123Z,25.80
2019-04-21T18:22:37.619Z,25.70
2019-04-21T18:25:10.535Z,25.60
2019-04-21T18:27:36.625Z,25.50
2019-04-21T18:30:31.087Z,25.30
2019-04-21T18:33:00.217Z,25.20
2019-04-21T18:35:38.422Z,25.10
2019-04-21T18:38:16.954Z,25.00
2019-04-21T18:40:45.485Z,24.90
2019-04-21T18:43:53.242Z,24.80
2019-04-21T18:46:20.625Z,24.70
2019-04-21T18:48:45.825Z,24.60
2019-04-21T18:51:32.719Z,24.60
2019-04-21T18:54:31.376Z,24.40
2019-04-21T18:56:56.654Z,24.30
2019-04-21T18:59:16.404Z,24.20
2019-04-21T19:01:51.691Z,24.20
2019-04-21T19:04:20.426Z,24.10
2019-04-21T19:07:02.958Z,24.00
2019-04-21T19:09:46.691Z,24.00
2019-04-21T19:12:16.448Z,23.90
2019-04-21T19:20:07.498Z,23.60
2019-04-21T19:22:15.273Z,23.60
2019-04-21T19:24:54.866Z,23.50
2019-04-21T19:27:23.827Z,23.40
2019-04-21T19:30:01.649Z,23.40
2019-04-21T19:32:25.281Z,23.30
2019-04-21T19:34:40.651Z,23.20
2019-04-21T19:37:14.376Z,23.20
2019-04-21T19:39:51.228Z,23.10
2019-04-21T19:42:20.626Z,23.10
2019-04-21T19:44:59.276Z,23.00
2019-04-21T19:47:43.313Z,22.90
2019-04-21T19:50:10.741Z,22.80
2019-04-21T19:52:34.532Z,22.80
2019-04-21T19:54:56.721Z,22.80
2019-04-21T19:57:27.379Z,22.80
2019-04-21T20:00:00.366Z,22.70
2019-04-21T20:02:30.302Z,22.70
2019-04-21T20:05:05.949Z,22.60
2019-04-21T20:07:44.461Z,22.50
2019-04-21T20:10:22.721Z,22.50
2019-04-21T20:12:53.335Z,22.50
2019-04-21T20:15:30.258Z,22.40
2019-04-21T20:17:58.547Z,22.30
2019-04-21T20:20:21.907Z,22.30
2019-04-21T20:22:54.211Z,22.30
2019-04-21T20:25:25.681Z,22.20
2019-04-21T20:28:04.965Z,22.20
2019-04-21T20:30:59.569Z,22.20
2019-04-21T20:36:03.348Z,22.10
2019-04-21T20:38:26.444Z,22.10
2019-04-21T20:40:51.008Z,22.10
2019-04-21T20:43:36.507Z,22.00
2019-04-21T20:46:09.417Z,22.00
2019-04-21T20:48:40.109Z,21.90
2019-04-21T20:51:18.393Z,21.90
2019-04-21T20:53:45.275Z,21.80
2019-04-21T20:56:13.275Z,21.80
2019-04-21T20:58:55.839Z,21.80
2019-04-21T21:01:39.300Z,21.70
2019-04-21T21:03:55.646Z,21.60
2019-04-21T21:06:26.103Z,21.60
2019-04-21T21:09:03.545Z,21.60
2019-04-21T21:11:45.161Z,21.60
2019-04-21T21:14:11.355Z,21.60
2019-04-21T21:16:50.748Z,21.50
2019-04-21T21:19:23.872Z,21.50
2019-04-21T21:21:48.590Z,21.50
2019-04-21T21:24:31.196Z,21.40
2019-04-21T21:27:00.510Z,21.40
2019-04-21T21:29:33.531Z,21.30
2019-04-21T21:32:14.961Z,21.30
2019-04-21T21:34:42.529Z,21.30
2019-04-21T21:37:14.183Z,21.30
2019-04-21T21:39:49.184Z,21.20
2019-04-21T21:41:58.591Z,21.20
2019-04-21T21:44:26.886Z,21.10
2019-04-21T21:47:08.748Z,21.10
2019-04-21T21:49:54.105Z,21.10
2019-04-21T21:52:18.279Z,21.00
2019-04-21T21:54:43.606Z,21.00
2019-04-21T21:57:14.492Z,20.90
2019-04-21T21:59:45.489Z,20.90
2019-04-21T22:02:27.397Z,20.80
2019-04-21T22:04:56.866Z,20.80
2019-04-21T22:07:24.844Z,20.70
2019-04-21T22:09:54.465Z,20.70
2019-04-21T22:12:45.498Z,20.70
2019-04-21T22:15:18.331Z,20.60
2019-04-21T22:18:04.476Z,20.50
2019-04-21T22:20:33.406Z,20.50
2019-04-21T22:22:56.321Z,20.40
2019-04-21T22:25:25.472Z,20.40
2019-04-21T22:27:53.628Z,20.30
2019-04-21T22:30:29.002Z,20.30
2019-04-21T22:33:03.797Z,20.30
2019-04-21T22:35:41.811Z,20.30
2019-04-21T22:38:37.560Z,20.20
2019-04-21T22:41:00.369Z,20.20
2019-04-21T22:43:31.759Z,20.20
2019-04-21T22:45:53.863Z,20.10
2019-04-21T22:48:26.620Z,20.10
2019-04-21T22:51:02.558Z,20.10
2019-04-21T22:53:36.026Z,20.00
2019-04-21T22:56:12.506Z,20.00
2019-04-21T22:58:39.311Z,19.90
2019-04-21T23:01:09.698Z,19.90
2019-04-21T23:03:49.199Z,19.90
2019-04-21T23:06:17.898Z,19.90
2019-04-21T23:08:45.641Z,19.80
2019-04-21T23:11:17.639Z,19.80
2019-04-21T23:13:54.973Z,19.70
2019-04-21T23:16:27.926Z,19.70
2019-04-21T23:19:14.273Z,19.70
2019-04-21T23:21:48.943Z,19.60
2019-04-21T23:24:17.904Z,19.70
2019-04-21T23:26:47.263Z,19.60
2019-04-21T23:29:35.755Z,19.60
2019-04-21T23:31:55.094Z,19.50
2019-04-21T23:34:06.449Z,19.50
2019-04-21T23:36:41.862Z,19.50
2019-04-21T23:39:15.695Z,19.50
2019-04-21T23:41:46.062Z,19.40
2019-04-21T23:44:17.158Z,19.40
2019-04-21T23:46:54.899Z,19.30
2019-04-21T23:49:34.558Z,19.30
2019-04-21T23:52:00.850Z,19.30
2019-04-21T23:54:25.221Z,19.20
2019-04-21T23:56:55.811Z,19.20
2019-04-21T23:59:31.219Z,19.20
